sensor_id;sensor_type;location;lat;lon;timestamp;P1;durP1;ratioP1;P2;durP2;ratioP2
56297;SDS011;42208;6.376;-10.782;2023-02-01T00:01:06;235.60;;;85.63;;
56297;SDS011;42208;6.376;-10.782;2023-02-01T00:03:35;179.93;;;60.50;;
56297;SDS011;42208;6.376;-10.782;2023-02-01T00:06:04;170.35;;;60.85;;
56297;SDS011;42208;6.376;-10.782;2023-02-01T00:08:32;202.65;;;73.00;;
56297;SDS011;42208;6.376;-10.782;2023-02-01T00:11:04;173.35;;;63.35;;
56297;SDS011;42208;6.376;-10.782;2023-02-01T00:13:35;181.15;;;65.40;;
56297;SDS011;42208;6.376;-10.782;2023-02-01T00:16:09;155.02;;;60.17;;
56297;SDS011;42208;6.376;-10.782;2023-02-01T00:18:40;171.60;;;59.92;;
56297;SDS011;42208;6.376;-10.782;2023-02-01T00:21:12;191.63;;;71.00;;
56297;SDS011;42208;6.376;-10.782;2023-02-01T00:23:42;195.52;;;72.82;;
56297;SDS011;42208;6.376;-10.782;2023-02-01T00:26:15;179.45;;;66.20;;
56297;SDS011;42208;6.376;-10.782;2023-02-01T00:28:51;175.35;;;60.70;;
56297;SDS011;42208;6.376;-10.782;2023-02-01T00:31:21;126.75;;;44.97;;
56297;SDS011;42208;6.376;-10.782;2023-02-01T00:33:49;105.15;;;40.83;;
56297;SDS011;42208;6.376;-10.782;2023-02-01T00:36:17;104.93;;;43.92;;
56297;SDS011;42208;6.376;-10.782;2023-02-01T00:38:47;122.07;;;48.15;;
56297;SDS011;42208;6.376;-10.782;2023-02-01T00:41:19;108.05;;;45.25;;
56297;SDS011;42208;6.376;-10.782;2023-02-01T00:43:50;102.80;;;40.90;;
56297;SDS011;42208;6.376;-10.782;2023-02-01T00:46:22;90.20;;;37.03;;
56297;SDS011;42208;6.376;-10.782;2023-02-01T00:48:50;85.57;;;36.40;;
56297;SDS011;42208;6.376;-10.782;2023-02-01T00:51:19;86.32;;;33.33;;
56297;SDS011;42208;6.376;-10.782;2023-02-01T00:53:49;85.43;;;31.60;;
56297;SDS011;42208;6.376;-10.782;2023-02-01T00:56:18;79.72;;;31.27;;
56297;SDS011;42208;6.376;-10.782;2023-02-01T00:58:46;73.00;;;28.08;;
56297;SDS011;42208;6.376;-10.782;2023-02-01T01:03:46;67.68;;;25.08;;
56297;SDS011;42208;6.376;-10.782;2023-02-01T01:06:18;68.72;;;24.27;;
56297;SDS011;42208;6.376;-10.782;2023-02-01T01:08:50;44.45;;;20.13;;
56297;SDS011;42208;6.376;-10.782;2023-02-01T01:11:21;52.77;;;22.10;;
56297;SDS011;42208;6.376;-10.782;2023-02-01T01:13:52;54.33;;;19.87;;
56297;SDS011;42208;6.376;-10.782;2023-02-01T01:16:22;51.17;;;20.27;;
56297;SDS011;42208;6.376;-10.782;2023-02-01T01:18:51;51.55;;;19.45;;
56297;SDS011;42208;6.376;-10.782;2023-02-01T01:21:21;50.95;;;20.33;;
56297;SDS011;42208;6.376;-10.782;2023-02-01T01:23:51;61.17;;;24.60;;
56297;SDS011;42208;6.376;-10.782;2023-02-01T01:26:20;101.38;;;42.47;;
56297;SDS011;42208;6.376;-10.782;2023-02-01T01:28:56;133.40;;;57.05;;
56297;SDS011;42208;6.376;-10.782;2023-02-01T01:31:27;132.23;;;60.38;;
56297;SDS011;42208;6.376;-10.782;2023-02-01T01:33:56;126.75;;;59.15;;
56297;SDS011;42208;6.376;-10.782;2023-02-01T01:36:27;125.32;;;58.33;;
56297;SDS011;42208;6.376;-10.782;2023-02-01T01:38:56;133.93;;;60.42;;
56297;SDS011;42208;6.376;-10.782;2023-02-01T01:41:25;155.60;;;71.20;;
56297;SDS011;42208;6.376;-10.782;2023-02-01T01:46:34;199.75;;;99.32;;
56297;SDS011;42208;6.376;-10.782;2023-02-01T01:49:06;233.03;;;104.23;;
56297;SDS011;42208;6.376;-10.782;2023-02-01T01:51:39;215.25;;;106.13;;
56297;SDS011;42208;6.376;-10.782;2023-02-01T01:54:24;227.38;;;110.40;;
56297;SDS011;42208;6.376;-10.782;2023-02-01T01:57:06;245.48;;;104.60;;
56297;SDS011;42208;6.376;-10.782;2023-02-01T01:59:41;227.20;;;110.07;;
56297;SDS011;42208;6.376;-10.782;2023-02-01T02:02:14;238.68;;;110.47;;
56297;SDS011;42208;6.376;-10.782;2023-02-01T02:04:45;213.13;;;103.20;;
56297;SDS011;42208;6.376;-10.782;2023-02-01T02:07:18;242.65;;;115.15;;
56297;SDS011;42208;6.376;-10.782;2023-02-01T02:09:50;243.68;;;117.47;;
56297;SDS011;42208;6.376;-10.782;2023-02-01T02:12:27;257.50;;;126.82;;
56297;SDS011;42208;6.376;-10.782;2023-02-01T02:14:56;272.08;;;123.78;;
56297;SDS011;42208;6.376;-10.782;2023-02-01T02:17:33;253.60;;;122.18;;
56297;SDS011;42208;6.376;-10.782;2023-02-01T02:20:25;257.00;;;127.47;;
56297;SDS011;42208;6.376;-10.782;2023-02-01T02:26:23;290.10;;;142.65;;
56297;SDS011;42208;6.376;-10.782;2023-02-01T02:40:50;242.02;;;117.13;;
56297;SDS011;42208;6.376;-10.782;2023-02-01T02:43:50;255.95;;;121.05;;
56297;SDS011;42208;6.376;-10.782;2023-02-01T02:46:24;257.77;;;125.35;;
56297;SDS011;42208;6.376;-10.782;2023-02-01T02:54:28;276.30;;;132.95;;
56297;SDS011;42208;6.376;-10.782;2023-02-01T02:57:03;261.00;;;128.52;;
56297;SDS011;42208;6.376;-10.782;2023-02-01T02:59:35;262.35;;;132.70;;
56297;SDS011;42208;6.376;-10.782;2023-02-01T03:04:36;281.52;;;127.88;;
56297;SDS011;42208;6.376;-10.782;2023-02-01T03:07:15;264.70;;;128.88;;
56297;SDS011;42208;6.376;-10.782;2023-02-01T03:13:13;237.45;;;122.43;;
56297;SDS011;42208;6.376;-10.782;2023-02-01T03:16:03;249.85;;;118.90;;
56297;SDS011;42208;6.376;-10.782;2023-02-01T03:21:25;228.32;;;114.35;;
56297;SDS011;42208;6.376;-10.782;2023-02-01T03:32:29;223.13;;;115.18;;
56297;SDS011;42208;6.376;-10.782;2023-02-01T03:34:58;227.15;;;115.20;;
56297;SDS011;42208;6.376;-10.782;2023-02-01T03:37:27;218.20;;;111.05;;
56297;SDS011;42208;6.376;-10.782;2023-02-01T03:40:07;218.85;;;110.78;;
56297;SDS011;42208;6.376;-10.782;2023-02-01T03:42:40;219.98;;;109.82;;
56297;SDS011;42208;6.376;-10.782;2023-02-01T03:45:24;207.45;;;104.60;;
56297;SDS011;42208;6.376;-10.782;2023-02-01T03:47:57;211.80;;;106.82;;
56297;SDS011;42208;6.376;-10.782;2023-02-01T03:50:28;222.77;;;110.07;;
56297;SDS011;42208;6.376;-10.782;2023-02-01T03:53:07;251.65;;;117.15;;
56297;SDS011;42208;6.376;-10.782;2023-02-01T03:55:38;241.98;;;117.90;;
56297;SDS011;42208;6.376;-10.782;2023-02-01T03:58:17;250.45;;;122.38;;
56297;SDS011;42208;6.376;-10.782;2023-02-01T04:00:51;230.05;;;113.68;;
56297;SDS011;42208;6.376;-10.782;2023-02-01T04:03:22;221.30;;;114.57;;
56297;SDS011;42208;6.376;-10.782;2023-02-01T04:05:54;226.57;;;114.18;;
56297;SDS011;42208;6.376;-10.782;2023-02-01T04:08:26;234.57;;;115.47;;
56297;SDS011;42208;6.376;-10.782;2023-02-01T04:10:54;215.60;;;109.03;;
56297;SDS011;42208;6.376;-10.782;2023-02-01T04:13:22;217.02;;;108.47;;
56297;SDS011;42208;6.376;-10.782;2023-02-01T04:15:51;202.00;;;103.45;;
56297;SDS011;42208;6.376;-10.782;2023-02-01T04:18:19;192.55;;;100.00;;
56297;SDS011;42208;6.376;-10.782;2023-02-01T04:20:47;199.65;;;97.65;;
56297;SDS011;42208;6.376;-10.782;2023-02-01T04:23:15;223.23;;;105.32;;
56297;SDS011;42208;6.376;-10.782;2023-02-01T04:25:43;223.30;;;113.80;;
56297;SDS011;42208;6.376;-10.782;2023-02-01T04:28:12;219.00;;;107.15;;
56297;SDS011;42208;6.376;-10.782;2023-02-01T04:30:40;231.25;;;107.40;;
56297;SDS011;42208;6.376;-10.782;2023-02-01T04:33:09;228.77;;;106.68;;
56297;SDS011;42208;6.376;-10.782;2023-02-01T04:35:37;210.35;;;102.32;;
56297;SDS011;42208;6.376;-10.782;2023-02-01T04:38:05;191.52;;;95.10;;
56297;SDS011;42208;6.376;-10.782;2023-02-01T04:40:34;179.40;;;90.75;;
56297;SDS011;42208;6.376;-10.782;2023-02-01T04:43:02;176.95;;;86.65;;
56297;SDS011;42208;6.376;-10.782;2023-02-01T04:45:30;157.95;;;85.97;;
56297;SDS011;42208;6.376;-10.782;2023-02-01T04:47:59;172.32;;;91.90;;
56297;SDS011;42208;6.376;-10.782;2023-02-01T04:50:27;192.88;;;98.25;;
56297;SDS011;42208;6.376;-10.782;2023-02-01T04:52:55;171.80;;;92.05;;
56297;SDS011;42208;6.376;-10.782;2023-02-01T04:55:23;214.18;;;108.65;;
56297;SDS011;42208;6.376;-10.782;2023-02-01T04:57:52;195.38;;;100.93;;
56297;SDS011;42208;6.376;-10.782;2023-02-01T05:00:20;180.25;;;90.55;;
56297;SDS011;42208;6.376;-10.782;2023-02-01T05:02:49;143.23;;;80.18;;
56297;SDS011;42208;6.376;-10.782;2023-02-01T05:05:17;141.95;;;72.93;;
56297;SDS011;42208;6.376;-10.782;2023-02-01T05:07:45;120.35;;;69.93;;
56297;SDS011;42208;6.376;-10.782;2023-02-01T05:10:14;116.25;;;64.97;;
56297;SDS011;42208;6.376;-10.782;2023-02-01T05:12:43;130.77;;;66.25;;
56297;SDS011;42208;6.376;-10.782;2023-02-01T05:15:12;117.97;;;62.00;;
56297;SDS011;42208;6.376;-10.782;2023-02-01T05:17:40;125.10;;;64.57;;
56297;SDS011;42208;6.376;-10.782;2023-02-01T05:20:09;116.90;;;62.83;;
56297;SDS011;42208;6.376;-10.782;2023-02-01T05:22:37;118.53;;;64.13;;
56297;SDS011;42208;6.376;-10.782;2023-02-01T05:25:06;119.50;;;63.15;;
56297;SDS011;42208;6.376;-10.782;2023-02-01T05:27:34;118.97;;;63.05;;
56297;SDS011;42208;6.376;-10.782;2023-02-01T05:30:03;117.88;;;63.50;;
56297;SDS011;42208;6.376;-10.782;2023-02-01T05:32:32;132.82;;;65.05;;
56297;SDS011;42208;6.376;-10.782;2023-02-01T05:35:00;120.40;;;63.20;;
56297;SDS011;42208;6.376;-10.782;2023-02-01T05:37:29;123.90;;;61.55;;
56297;SDS011;42208;6.376;-10.782;2023-02-01T05:39:57;126.88;;;60.78;;
56297;SDS011;42208;6.376;-10.782;2023-02-01T05:42:25;107.05;;;55.75;;
56297;SDS011;42208;6.376;-10.782;2023-02-01T05:44:54;117.95;;;57.08;;
56297;SDS011;42208;6.376;-10.782;2023-02-01T05:47:22;130.10;;;60.30;;
56297;SDS011;42208;6.376;-10.782;2023-02-01T05:49:50;116.55;;;58.30;;
56297;SDS011;42208;6.376;-10.782;2023-02-01T05:52:18;115.18;;;60.28;;
56297;SDS011;42208;6.376;-10.782;2023-02-01T05:54:47;124.07;;;58.03;;
56297;SDS011;42208;6.376;-10.782;2023-02-01T05:57:15;121.35;;;59.03;;
56297;SDS011;42208;6.376;-10.782;2023-02-01T05:59:43;106.32;;;57.28;;
56297;SDS011;42208;6.376;-10.782;2023-02-01T06:02:11;106.32;;;56.85;;
56297;SDS011;42208;6.376;-10.782;2023-02-01T06:04:40;101.68;;;54.38;;
56297;SDS011;42208;6.376;-10.782;2023-02-01T06:07:09;107.07;;;54.58;;
56297;SDS011;42208;6.376;-10.782;2023-02-01T06:09:40;110.22;;;51.35;;
56297;SDS011;42208;6.376;-10.782;2023-02-01T06:12:09;109.57;;;56.83;;
56297;SDS011;42208;6.376;-10.782;2023-02-01T06:14:37;109.68;;;54.55;;
56297;SDS011;42208;6.376;-10.782;2023-02-01T06:17:08;116.75;;;57.15;;
56297;SDS011;42208;6.376;-10.782;2023-02-01T06:19:37;106.18;;;53.95;;
56297;SDS011;42208;6.376;-10.782;2023-02-01T06:22:05;125.25;;;53.67;;
56297;SDS011;42208;6.376;-10.782;2023-02-01T06:24:33;108.78;;;52.88;;
56297;SDS011;42208;6.376;-10.782;2023-02-01T06:27:02;95.85;;;50.67;;
56297;SDS011;42208;6.376;-10.782;2023-02-01T06:29:30;104.90;;;52.45;;
56297;SDS011;42208;6.376;-10.782;2023-02-01T06:31:58;105.75;;;53.40;;
56297;SDS011;42208;6.376;-10.782;2023-02-01T06:34:27;111.10;;;50.00;;
56297;SDS011;42208;6.376;-10.782;2023-02-01T06:36:55;92.10;;;47.85;;
56297;SDS011;42208;6.376;-10.782;2023-02-01T06:39:24;96.43;;;50.00;;
56297;SDS011;42208;6.376;-10.782;2023-02-01T06:41:52;94.70;;;48.70;;
56297;SDS011;42208;6.376;-10.782;2023-02-01T06:44:20;94.95;;;47.15;;
56297;SDS011;42208;6.376;-10.782;2023-02-01T06:46:48;94.97;;;50.00;;
56297;SDS011;42208;6.376;-10.782;2023-02-01T06:49:17;90.38;;;46.33;;
56297;SDS011;42208;6.376;-10.782;2023-02-01T06:51:45;89.18;;;45.95;;
56297;SDS011;42208;6.376;-10.782;2023-02-01T06:54:13;91.65;;;45.90;;
56297;SDS011;42208;6.376;-10.782;2023-02-01T06:56:41;89.88;;;43.97;;
56297;SDS011;42208;6.376;-10.782;2023-02-01T06:59:10;87.20;;;48.85;;
56297;SDS011;42208;6.376;-10.782;2023-02-01T07:01:42;82.18;;;44.90;;
56297;SDS011;42208;6.376;-10.782;2023-02-01T07:04:11;81.57;;;45.95;;
56297;SDS011;42208;6.376;-10.782;2023-02-01T07:06:39;88.07;;;43.88;;
56297;SDS011;42208;6.376;-10.782;2023-02-01T07:09:08;73.28;;;42.55;;
56297;SDS011;42208;6.376;-10.782;2023-02-01T07:11:36;85.28;;;44.80;;
56297;SDS011;42208;6.376;-10.782;2023-02-01T07:14:05;86.35;;;44.05;;
56297;SDS011;42208;6.376;-10.782;2023-02-01T07:16:33;74.13;;;41.15;;
56297;SDS011;42208;6.376;-10.782;2023-02-01T07:19:02;87.15;;;39.80;;
56297;SDS011;42208;6.376;-10.782;2023-02-01T07:21:32;84.22;;;38.03;;
56297;SDS011;42208;6.376;-10.782;2023-02-01T07:24:00;85.95;;;36.88;;
56297;SDS011;42208;6.376;-10.782;2023-02-01T07:26:28;71.00;;;33.42;;
56297;SDS011;42208;6.376;-10.782;2023-02-01T07:28:56;58.40;;;33.05;;
56297;SDS011;42208;6.376;-10.782;2023-02-01T07:31:25;78.57;;;34.88;;
56297;SDS011;42208;6.376;-10.782;2023-02-01T07:33:53;72.65;;;31.48;;
56297;SDS011;42208;6.376;-10.782;2023-02-01T07:36:22;61.88;;;31.52;;
56297;SDS011;42208;6.376;-10.782;2023-02-01T07:38:51;60.28;;;28.80;;
56297;SDS011;42208;6.376;-10.782;2023-02-01T07:41:22;58.73;;;28.43;;
56297;SDS011;42208;6.376;-10.782;2023-02-01T07:43:53;53.45;;;26.20;;
56297;SDS011;42208;6.376;-10.782;2023-02-01T07:46:22;69.45;;;27.13;;
56297;SDS011;42208;6.376;-10.782;2023-02-01T07:48:51;57.63;;;28.17;;
56297;SDS011;42208;6.376;-10.782;2023-02-01T07:51:19;46.03;;;26.15;;
56297;SDS011;42208;6.376;-10.782;2023-02-01T07:53:47;51.42;;;24.33;;
56297;SDS011;42208;6.376;-10.782;2023-02-01T07:56:19;43.90;;;24.27;;
56297;SDS011;42208;6.376;-10.782;2023-02-01T07:58:49;41.83;;;22.88;;
56297;SDS011;42208;6.376;-10.782;2023-02-01T08:01:27;45.92;;;23.83;;
56297;SDS011;42208;6.376;-10.782;2023-02-01T08:03:57;47.20;;;21.90;;
56297;SDS011;42208;6.376;-10.782;2023-02-01T08:06:27;52.25;;;22.38;;
56297;SDS011;42208;6.376;-10.782;2023-02-01T08:11:28;43.55;;;21.55;;
56297;SDS011;42208;6.376;-10.782;2023-02-01T08:13:57;46.28;;;20.90;;
56297;SDS011;42208;6.376;-10.782;2023-02-01T08:16:26;46.97;;;21.42;;
56297;SDS011;42208;6.376;-10.782;2023-02-01T08:18:54;44.97;;;21.23;;
56297;SDS011;42208;6.376;-10.782;2023-02-01T08:21:24;51.70;;;21.20;;
56297;SDS011;42208;6.376;-10.782;2023-02-01T08:23:53;40.50;;;21.55;;
56297;SDS011;42208;6.376;-10.782;2023-02-01T08:26:23;48.92;;;21.25;;
56297;SDS011;42208;6.376;-10.782;2023-02-01T08:28:53;47.85;;;21.75;;
56297;SDS011;42208;6.376;-10.782;2023-02-01T08:31:24;69.53;;;21.93;;
56297;SDS011;42208;6.376;-10.782;2023-02-01T08:33:55;68.43;;;24.77;;
56297;SDS011;42208;6.376;-10.782;2023-02-01T08:36:26;69.57;;;28.58;;
56297;SDS011;42208;6.376;-10.782;2023-02-01T08:38:56;58.20;;;28.30;;
56297;SDS011;42208;6.376;-10.782;2023-02-01T08:41:26;60.67;;;25.75;;
56297;SDS011;42208;6.376;-10.782;2023-02-01T08:43:57;61.22;;;26.80;;
56297;SDS011;42208;6.376;-10.782;2023-02-01T08:46:25;61.53;;;25.48;;
56297;SDS011;42208;6.376;-10.782;2023-02-01T08:48:54;65.05;;;25.10;;
56297;SDS011;42208;6.376;-10.782;2023-02-01T08:51:22;61.42;;;24.30;;
56297;SDS011;42208;6.376;-10.782;2023-02-01T08:53:51;61.75;;;24.98;;
56297;SDS011;42208;6.376;-10.782;2023-02-01T08:56:20;63.50;;;26.77;;
56297;SDS011;42208;6.376;-10.782;2023-02-01T08:58:48;77.75;;;27.27;;
56297;SDS011;42208;6.376;-10.782;2023-02-01T09:01:16;71.70;;;30.00;;
56297;SDS011;42208;6.376;-10.782;2023-02-01T09:03:45;58.40;;;26.45;;
56297;SDS011;42208;6.376;-10.782;2023-02-01T09:06:14;66.38;;;25.40;;
56297;SDS011;42208;6.376;-10.782;2023-02-01T09:08:43;71.38;;;28.48;;
56297;SDS011;42208;6.376;-10.782;2023-02-01T09:11:13;74.38;;;29.75;;
56297;SDS011;42208;6.376;-10.782;2023-02-01T09:13:43;74.20;;;31.38;;
56297;SDS011;42208;6.376;-10.782;2023-02-01T09:16:11;47.75;;;21.33;;
56297;SDS011;42208;6.376;-10.782;2023-02-01T09:18:45;37.13;;;18.95;;
56297;SDS011;42208;6.376;-10.782;2023-02-01T09:21:34;51.80;;;19.80;;
56297;SDS011;42208;6.376;-10.782;2023-02-01T09:24:02;48.92;;;17.80;;
56297;SDS011;42208;6.376;-10.782;2023-02-01T09:26:31;66.35;;;27.92;;
56297;SDS011;42208;6.376;-10.782;2023-02-01T09:28:59;68.35;;;27.33;;
56297;SDS011;42208;6.376;-10.782;2023-02-01T09:31:28;57.38;;;27.52;;
56297;SDS011;42208;6.376;-10.782;2023-02-01T09:33:57;42.78;;;19.88;;
56297;SDS011;42208;6.376;-10.782;2023-02-01T09:36:26;44.90;;;20.88;;
56297;SDS011;42208;6.376;-10.782;2023-02-01T09:38:57;42.50;;;21.08;;
56297;SDS011;42208;6.376;-10.782;2023-02-01T09:46:58;47.63;;;22.10;;
56297;SDS011;42208;6.376;-10.782;2023-02-01T09:49:30;58.10;;;20.98;;
56297;SDS011;42208;6.376;-10.782;2023-02-01T09:52:02;42.65;;;19.55;;
56297;SDS011;42208;6.376;-10.782;2023-02-01T09:54:40;35.15;;;16.02;;
56297;SDS011;42208;6.376;-10.782;2023-02-01T09:57:22;39.40;;;18.58;;
56297;SDS011;42208;6.376;-10.782;2023-02-01T09:59:55;57.22;;;22.23;;
56297;SDS011;42208;6.376;-10.782;2023-02-01T10:02:37;63.47;;;23.58;;
56297;SDS011;42208;6.376;-10.782;2023-02-01T10:05:11;24.50;;;12.23;;
56297;SDS011;42208;6.376;-10.782;2023-02-01T10:07:49;30.38;;;13.73;;
56297;SDS011;42208;6.376;-10.782;2023-02-01T10:10:43;49.85;;;17.70;;
56297;SDS011;42208;6.376;-10.782;2023-02-01T10:20:12;49.70;;;18.20;;
56297;SDS011;42208;6.376;-10.782;2023-02-01T10:22:25;37.45;;;16.75;;
56297;SDS011;42208;6.376;-10.782;2023-02-01T10:25:27;41.80;;;16.58;;
56297;SDS011;42208;6.376;-10.782;2023-02-01T10:28:03;29.17;;;14.07;;
56297;SDS011;42208;6.376;-10.782;2023-02-01T10:30:34;29.35;;;13.93;;
56297;SDS011;42208;6.376;-10.782;2023-02-01T10:33:19;33.20;;;15.73;;
56297;SDS011;42208;6.376;-10.782;2023-02-01T10:38:43;45.95;;;29.15;;
56297;SDS011;42208;6.376;-10.782;2023-02-01T10:41:16;63.25;;;36.50;;
56297;SDS011;42208;6.376;-10.782;2023-02-01T10:43:49;57.95;;;34.45;;
56297;SDS011;42208;6.376;-10.782;2023-02-01T18:22:03;32.70;;;12.52;;
56297;SDS011;42208;6.376;-10.782;2023-02-01T18:24:32;47.38;;;16.83;;
56297;SDS011;42208;6.376;-10.782;2023-02-01T18:27:00;57.95;;;26.58;;
56297;SDS011;42208;6.376;-10.782;2023-02-01T18:29:29;45.45;;;20.00;;
56297;SDS011;42208;6.376;-10.782;2023-02-01T18:31:57;50.35;;;14.10;;
56297;SDS011;42208;6.376;-10.782;2023-02-01T18:34:26;52.95;;;17.23;;
56297;SDS011;42208;6.376;-10.782;2023-02-01T18:36:54;43.88;;;19.48;;
56297;SDS011;42208;6.376;-10.782;2023-02-01T18:39:22;69.38;;;20.35;;
56297;SDS011;42208;6.376;-10.782;2023-02-01T18:41:51;55.42;;;19.50;;
56297;SDS011;42208;6.376;-10.782;2023-02-01T18:44:19;43.20;;;16.88;;
56297;SDS011;42208;6.376;-10.782;2023-02-01T18:46:48;44.97;;;17.92;;
56297;SDS011;42208;6.376;-10.782;2023-02-01T18:49:16;62.35;;;24.80;;
56297;SDS011;42208;6.376;-10.782;2023-02-01T18:51:45;57.30;;;21.95;;
56297;SDS011;42208;6.376;-10.782;2023-02-01T18:54:13;49.33;;;17.83;;
56297;SDS011;42208;6.376;-10.782;2023-02-01T18:56:41;58.53;;;20.42;;
56297;SDS011;42208;6.376;-10.782;2023-02-01T18:59:10;54.15;;;20.05;;
56297;SDS011;42208;6.376;-10.782;2023-02-01T19:01:38;58.95;;;21.30;;
56297;SDS011;42208;6.376;-10.782;2023-02-01T19:04:10;52.83;;;20.38;;
56297;SDS011;42208;6.376;-10.782;2023-02-01T19:06:50;40.80;;;17.17;;
56297;SDS011;42208;6.376;-10.782;2023-02-01T19:09:18;53.83;;;19.67;;
56297;SDS011;42208;6.376;-10.782;2023-02-01T19:11:46;58.90;;;21.98;;
56297;SDS011;42208;6.376;-10.782;2023-02-01T19:14:15;55.30;;;21.23;;
56297;SDS011;42208;6.376;-10.782;2023-02-01T19:16:43;161.15;;;67.25;;
56297;SDS011;42208;6.376;-10.782;2023-02-01T19:19:12;68.55;;;30.15;;
56297;SDS011;42208;6.376;-10.782;2023-02-01T19:21:41;52.70;;;23.27;;
56297;SDS011;42208;6.376;-10.782;2023-02-01T19:24:09;77.38;;;30.02;;
56297;SDS011;42208;6.376;-10.782;2023-02-01T19:26:39;105.95;;;50.40;;
56297;SDS011;42208;6.376;-10.782;2023-02-01T19:29:08;230.05;;;105.25;;
56297;SDS011;42208;6.376;-10.782;2023-02-01T19:31:36;154.07;;;64.18;;
56297;SDS011;42208;6.376;-10.782;2023-02-01T19:34:06;128.00;;;59.33;;
56297;SDS011;42208;6.376;-10.782;2023-02-01T19:36:35;220.68;;;90.43;;
56297;SDS011;42208;6.376;-10.782;2023-02-01T19:39:03;353.25;;;147.55;;
56297;SDS011;42208;6.376;-10.782;2023-02-01T19:41:31;280.67;;;122.00;;
56297;SDS011;42208;6.376;-10.782;2023-02-01T19:44:00;80.15;;;35.42;;
56297;SDS011;42208;6.376;-10.782;2023-02-01T19:46:28;186.32;;;76.30;;
56297;SDS011;42208;6.376;-10.782;2023-02-01T19:48:57;237.05;;;96.50;;
56297;SDS011;42208;6.376;-10.782;2023-02-01T19:51:25;170.52;;;63.80;;
56297;SDS011;42208;6.376;-10.782;2023-02-01T19:53:53;339.10;;;139.07;;
56297;SDS011;42208;6.376;-10.782;2023-02-01T19:56:22;374.38;;;150.55;;
56297;SDS011;42208;6.376;-10.782;2023-02-01T19:58:50;242.90;;;98.15;;
56297;SDS011;42208;6.376;-10.782;2023-02-01T20:01:19;176.25;;;75.22;;
56297;SDS011;42208;6.376;-10.782;2023-02-01T20:03:47;102.50;;;44.67;;
56297;SDS011;42208;6.376;-10.782;2023-02-01T20:06:15;109.85;;;46.47;;
56297;SDS011;42208;6.376;-10.782;2023-02-01T20:08:47;92.43;;;36.75;;
56297;SDS011;42208;6.376;-10.782;2023-02-01T20:11:15;122.28;;;46.63;;
56297;SDS011;42208;6.376;-10.782;2023-02-01T20:13:43;159.02;;;63.40;;
56297;SDS011;42208;6.376;-10.782;2023-02-01T20:16:12;176.25;;;70.03;;
56297;SDS011;42208;6.376;-10.782;2023-02-01T20:18:40;125.50;;;52.10;;
56297;SDS011;42208;6.376;-10.782;2023-02-01T20:21:10;93.28;;;37.90;;
56297;SDS011;42208;6.376;-10.782;2023-02-01T20:23:39;56.25;;;24.77;;
56297;SDS011;42208;6.376;-10.782;2023-02-01T20:26:09;92.60;;;35.03;;
56297;SDS011;42208;6.376;-10.782;2023-02-01T20:28:38;91.65;;;35.33;;
56297;SDS011;42208;6.376;-10.782;2023-02-01T20:31:06;138.50;;;51.30;;
56297;SDS011;42208;6.376;-10.782;2023-02-01T20:33:35;211.38;;;78.88;;
56297;SDS011;42208;6.376;-10.782;2023-02-01T20:36:04;271.77;;;106.55;;
56297;SDS011;42208;6.376;-10.782;2023-02-01T20:38:33;204.18;;;78.10;;
56297;SDS011;42208;6.376;-10.782;2023-02-01T20:41:04;239.95;;;92.50;;
56297;SDS011;42208;6.376;-10.782;2023-02-01T20:43:34;173.70;;;70.30;;
56297;SDS011;42208;6.376;-10.782;2023-02-01T20:46:03;228.13;;;91.65;;
56297;SDS011;42208;6.376;-10.782;2023-02-01T20:48:31;314.25;;;126.18;;
56297;SDS011;42208;6.376;-10.782;2023-02-01T20:51:00;283.77;;;120.38;;
56297;SDS011;42208;6.376;-10.782;2023-02-01T20:53:29;365.35;;;143.00;;
56297;SDS011;42208;6.376;-10.782;2023-02-01T20:55:57;297.67;;;117.78;;
56297;SDS011;42208;6.376;-10.782;2023-02-01T20:58:26;203.60;;;83.13;;
56297;SDS011;42208;6.376;-10.782;2023-02-01T21:00:54;127.55;;;50.97;;
56297;SDS011;42208;6.376;-10.782;2023-02-01T21:03:23;297.77;;;110.85;;
56297;SDS011;42208;6.376;-10.782;2023-02-01T21:05:54;208.90;;;78.38;;
56297;SDS011;42208;6.376;-10.782;2023-02-01T21:08:24;285.83;;;109.20;;
56297;SDS011;42208;6.376;-10.782;2023-02-01T21:10:54;230.77;;;90.47;;
56297;SDS011;42208;6.376;-10.782;2023-02-01T21:13:24;134.05;;;52.67;;
56297;SDS011;42208;6.376;-10.782;2023-02-01T21:15:53;106.47;;;41.10;;
56297;SDS011;42208;6.376;-10.782;2023-02-01T21:18:22;172.27;;;65.25;;
56297;SDS011;42208;6.376;-10.782;2023-02-01T21:20:51;219.98;;;87.75;;
56297;SDS011;42208;6.376;-10.782;2023-02-01T21:23:19;223.60;;;84.65;;
56297;SDS011;42208;6.376;-10.782;2023-02-01T21:25:48;328.65;;;125.28;;
56297;SDS011;42208;6.376;-10.782;2023-02-01T21:28:16;290.30;;;108.75;;
56297;SDS011;42208;6.376;-10.782;2023-02-01T21:30:45;297.17;;;114.90;;
56297;SDS011;42208;6.376;-10.782;2023-02-01T21:33:13;224.27;;;80.47;;
56297;SDS011;42208;6.376;-10.782;2023-02-01T21:35:41;124.97;;;44.65;;
56297;SDS011;42208;6.376;-10.782;2023-02-01T21:38:10;85.38;;;34.00;;
56297;SDS011;42208;6.376;-10.782;2023-02-01T21:40:38;48.40;;;22.27;;
56297;SDS011;42208;6.376;-10.782;2023-02-01T21:43:06;69.45;;;30.67;;
56297;SDS011;42208;6.376;-10.782;2023-02-01T21:45:34;110.88;;;42.88;;
56297;SDS011;42208;6.376;-10.782;2023-02-01T21:48:09;51.47;;;21.80;;
56297;SDS011;42208;6.376;-10.782;2023-02-01T21:50:37;40.20;;;18.38;;
56297;SDS011;42208;6.376;-10.782;2023-02-01T21:53:08;34.55;;;16.77;;
56297;SDS011;42208;6.376;-10.782;2023-02-01T21:55:36;41.58;;;17.13;;
56297;SDS011;42208;6.376;-10.782;2023-02-01T21:58:05;43.90;;;19.88;;
56297;SDS011;42208;6.376;-10.782;2023-02-01T22:00:33;55.63;;;24.60;;
56297;SDS011;42208;6.376;-10.782;2023-02-01T22:03:01;55.65;;;23.63;;
56297;SDS011;42208;6.376;-10.782;2023-02-01T22:05:29;67.25;;;27.33;;
56297;SDS011;42208;6.376;-10.782;2023-02-01T22:07:58;71.63;;;30.65;;
56297;SDS011;42208;6.376;-10.782;2023-02-01T22:10:26;62.63;;;28.58;;
56297;SDS011;42208;6.376;-10.782;2023-02-01T22:12:54;72.75;;;30.00;;
56297;SDS011;42208;6.376;-10.782;2023-02-01T22:15:23;67.45;;;28.92;;
56297;SDS011;42208;6.376;-10.782;2023-02-01T22:17:51;73.70;;;34.28;;
56297;SDS011;42208;6.376;-10.782;2023-02-01T22:20:20;75.43;;;33.78;;
56297;SDS011;42208;6.376;-10.782;2023-02-01T22:22:48;58.05;;;25.08;;
56297;SDS011;42208;6.376;-10.782;2023-02-01T22:25:16;55.83;;;27.15;;
56297;SDS011;42208;6.376;-10.782;2023-02-01T22:27:45;92.20;;;37.83;;
56297;SDS011;42208;6.376;-10.782;2023-02-01T22:30:33;212.52;;;83.35;;
56297;SDS011;42208;6.376;-10.782;2023-02-01T22:33:01;296.75;;;111.97;;
56297;SDS011;42208;6.376;-10.782;2023-02-01T22:35:30;237.02;;;90.40;;
56297;SDS011;42208;6.376;-10.782;2023-02-01T22:37:58;188.60;;;75.25;;
56297;SDS011;42208;6.376;-10.782;2023-02-01T22:40:26;114.63;;;44.58;;
56297;SDS011;42208;6.376;-10.782;2023-02-01T22:42:54;101.53;;;41.28;;
56297;SDS011;42208;6.376;-10.782;2023-02-01T22:45:23;79.68;;;34.20;;
56297;SDS011;42208;6.376;-10.782;2023-02-01T22:47:51;70.03;;;30.33;;
56297;SDS011;42208;6.376;-10.782;2023-02-01T22:50:20;73.93;;;29.70;;
56297;SDS011;42208;6.376;-10.782;2023-02-01T22:52:48;84.18;;;38.45;;
56297;SDS011;42208;6.376;-10.782;2023-02-01T22:55:16;87.28;;;39.38;;